Airfield :
LOGIN :

Register | Disclaimer

   EN    FR    IT 

 










Legend :    VFR   Marginal VFR   IFR   Intensive IFR   Very Intensive IFR
Visi :
Ceiling :
>= 8 km
>= 3000ft
5 to 8 km
1000 to 3000 ft
1500m to 5 km
500 to 1000 ft
800 to 1500m
200 to 500 ft
< 800m
< 200 ft
Symbols :   Thunderstorms  Fog  Heavy snow  Heavy precipitations  Wind > 20 kt
SIGMETs :     Misc.  Thunderstorms  Icing  Turbulence  Mountain Waves  Volcanic Ashes






- Airport Elevation : 83 ft
- IATA code : LHR


EGLL - London Heathrow

CURRENT METAR :
  • 101220Z AUTO 07008KT 040V100 9999 OVC031 08/00 Q1012

EXPIRED METARs :
  • 101150Z AUTO 06011KT 9999 BKN027 OVC034 08/01 Q1013
  • 101120Z AUTO 06008KT 9999 -RA OVC024 07/02 Q1013 NOSIG
  • 101050Z AUTO 06008KT 020V080 9999 -RA OVC023 07/02 Q1013 NOSIG
  • 101020Z AUTO 07008KT 9999 OVC022 07/02 Q1013 NOSIG
  • 100950Z AUTO 08009KT 9999 OVC022 07/02 Q1013

TAF TAF EGLL
Valid from the 10 at 12:00 until the 11 at 18:00 UTC


101057Z 1012/1118 07010KT 9999 SCT020
PROB40
TEMPO 1012/1018 7000 -RADZ BKN012
BECMG 1023/1102 01006KT
BECMG 1112/1113 31010KT
PROB30
TEMPO 1112/1115 8000 -SHRA
PROB30
TEMPO 1115/1118 4000 SHRASN



MET'MAP, your aeronautical weather chart ! - Copyright ORBIFLY December 2007 - Disclaimer

ORBIFLY MET'MAP TEAM :

Programming & Development : Alexandra Zaïnal
Concept & original design : Baudouin d'Aumeries
Assistance for programming : Marc-Olivier Méhu
Technical & hardware support : Manuel Goepfert

Contact : metmap@orbifly.com




SOURCES & CREDITS :

   NOAA